sensor_id;sensor_type;location;lat;lon;timestamp;pressure;altitude;pressure_sealevel;temperature;humidity
42727;BME280;28372;56.832;60.658;2022-08-19T00:01:54;99183.72;;;16.68;47.29
42727;BME280;28372;56.832;60.658;2022-08-19T00:04:29;99185.28;;;16.69;47.64
42727;BME280;28372;56.832;60.658;2022-08-19T00:06:57;99183.28;;;16.58;47.60
42727;BME280;28372;56.832;60.658;2022-08-19T00:09:25;99177.00;;;16.54;47.45
42727;BME280;28372;56.832;60.658;2022-08-19T00:11:56;99188.34;;;16.60;47.65
42727;BME280;28372;56.832;60.658;2022-08-19T00:14:26;99200.47;;;16.63;47.85
42727;BME280;28372;56.832;60.658;2022-08-19T00:16:54;99204.31;;;16.54;47.57
42727;BME280;28372;56.832;60.658;2022-08-19T00:19:23;99223.44;;;16.58;48.59
42727;BME280;28372;56.832;60.658;2022-08-19T00:21:51;99217.59;;;16.56;47.97
42727;BME280;28372;56.832;60.658;2022-08-19T00:24:19;99219.16;;;16.57;48.20
42727;BME280;28372;56.832;60.658;2022-08-19T00:26:47;99218.22;;;16.42;48.18
42727;BME280;28372;56.832;60.658;2022-08-19T00:29:16;99235.94;;;16.59;48.45
42727;BME280;28372;56.832;60.658;2022-08-19T00:31:45;99235.50;;;16.53;48.24
42727;BME280;28372;56.832;60.658;2022-08-19T00:34:14;99235.50;;;16.53;48.76
42727;BME280;28372;56.832;60.658;2022-08-19T00:36:42;99233.56;;;16.54;48.46
42727;BME280;28372;56.832;60.658;2022-08-19T00:39:11;99225.34;;;16.50;48.62
42727;BME280;28372;56.832;60.658;2022-08-19T00:41:39;99217.13;;;16.50;48.55
42727;BME280;28372;56.832;60.658;2022-08-19T00:44:11;99222.66;;;16.57;49.41
42727;BME280;28372;56.832;60.658;2022-08-19T00:46:43;99222.72;;;16.61;49.69
42727;BME280;28372;56.832;60.658;2022-08-19T00:49:29;99228.59;;;16.67;50.34
42727;BME280;28372;56.832;60.658;2022-08-19T00:52:11;99240.69;;;16.66;50.32
42727;BME280;28372;56.832;60.658;2022-08-19T00:54:40;99255.81;;;16.56;49.24
42727;BME280;28372;56.832;60.658;2022-08-19T00:57:11;99249.59;;;16.59;49.47
42727;BME280;28372;56.832;60.658;2022-08-19T00:59:44;99260.97;;;16.65;49.65
42727;BME280;28372;56.832;60.658;2022-08-19T01:02:30;99264.41;;;16.58;49.37
42727;BME280;28372;56.832;60.658;2022-08-19T01:05:03;99266.81;;;16.63;49.86
42727;BME280;28372;56.832;60.658;2022-08-19T01:07:33;99263.25;;;16.59;49.45
42727;BME280;28372;56.832;60.658;2022-08-19T01:10:07;99255.88;;;16.63;50.32
42727;BME280;28372;56.832;60.658;2022-08-19T01:12:37;99250.34;;;16.56;49.90
42727;BME280;28372;56.832;60.658;2022-08-19T01:15:10;99250.09;;;16.72;50.94
42727;BME280;28372;56.832;60.658;2022-08-19T01:17:40;99250.47;;;16.67;49.82
42727;BME280;28372;56.832;60.658;2022-08-19T01:20:15;99257.56;;;16.75;50.61
42727;BME280;28372;56.832;60.658;2022-08-19T01:22:52;99260.31;;;16.78;50.79
42727;BME280;28372;56.832;60.658;2022-08-19T01:25:24;99254.41;;;16.69;50.37
42727;BME280;28372;56.832;60.658;2022-08-19T01:27:55;99244.56;;;16.65;49.89
42727;BME280;28372;56.832;60.658;2022-08-19T01:30:33;99249.31;;;16.71;49.85
42727;BME280;28372;56.832;60.658;2022-08-19T01:33:01;99261.41;;;16.70;49.12
42727;BME280;28372;56.832;60.658;2022-08-19T01:35:32;99266.09;;;16.70;48.70
42727;BME280;28372;56.832;60.658;2022-08-19T01:38:03;99270.03;;;16.76;49.32
42727;BME280;28372;56.832;60.658;2022-08-19T01:40:37;99279.44;;;16.78;48.71
42727;BME280;28372;56.832;60.658;2022-08-19T01:43:05;99285.75;;;16.86;48.29
42727;BME280;28372;56.832;60.658;2022-08-19T01:45:34;99288.13;;;16.88;47.90
42727;BME280;28372;56.832;60.658;2022-08-19T01:48:02;99276.84;;;16.93;47.66
42727;BME280;28372;56.832;60.658;2022-08-19T01:50:32;99270.66;;;17.00;47.38
42727;BME280;28372;56.832;60.658;2022-08-19T01:53:02;99274.59;;;17.02;47.26
42727;BME280;28372;56.832;60.658;2022-08-19T01:55:36;99282.47;;;17.11;47.08
42727;BME280;28372;56.832;60.658;2022-08-19T01:58:10;99282.72;;;17.47;46.42
42727;BME280;28372;56.832;60.658;2022-08-19T02:00:38;99277.03;;;17.18;46.16
42727;BME280;28372;56.832;60.658;2022-08-19T02:03:06;99280.97;;;17.21;46.36
42727;BME280;28372;56.832;60.658;2022-08-19T02:05:33;99289.97;;;17.21;45.93
42727;BME280;28372;56.832;60.658;2022-08-19T02:08:01;99290.38;;;17.20;45.93
42727;BME280;28372;56.832;60.658;2022-08-19T02:10:29;99296.63;;;17.24;46.08
42727;BME280;28372;56.832;60.658;2022-08-19T02:12:56;99295.13;;;17.30;45.78
42727;BME280;28372;56.832;60.658;2022-08-19T02:15:24;99302.56;;;17.33;45.87
42727;BME280;28372;56.832;60.658;2022-08-19T02:17:52;99299.84;;;17.37;45.35
42727;BME280;28372;56.832;60.658;2022-08-19T02:20:20;99293.19;;;17.38;45.77
42727;BME280;28372;56.832;60.658;2022-08-19T02:22:47;99295.16;;;17.37;46.68
42727;BME280;28372;56.832;60.658;2022-08-19T02:25:15;99308.50;;;17.46;46.60
42727;BME280;28372;56.832;60.658;2022-08-19T02:27:43;99303.84;;;17.50;46.96
42727;BME280;28372;56.832;60.658;2022-08-19T02:30:14;99308.19;;;17.58;47.55
42727;BME280;28372;56.832;60.658;2022-08-19T02:32:43;99304.25;;;17.52;46.83
42727;BME280;28372;56.832;60.658;2022-08-19T02:35:13;99299.56;;;17.53;47.46
42727;BME280;28372;56.832;60.658;2022-08-19T02:37:41;99308.97;;;17.59;47.44
42727;BME280;28372;56.832;60.658;2022-08-19T02:40:30;99305.91;;;17.71;47.35
42727;BME280;28372;56.832;60.658;2022-08-19T02:43:06;99308.72;;;17.82;47.96
42727;BME280;28372;56.832;60.658;2022-08-19T02:45:35;99308.09;;;18.10;46.49
42727;BME280;28372;56.832;60.658;2022-08-19T02:48:07;99305.22;;;17.85;47.48
42727;BME280;28372;56.832;60.658;2022-08-19T02:50:49;99314.66;;;17.91;47.80
42727;BME280;28372;56.832;60.658;2022-08-19T02:53:24;99308.03;;;18.00;47.70
42727;BME280;28372;56.832;60.658;2022-08-19T02:55:53;99302.97;;;18.05;47.27
42727;BME280;28372;56.832;60.658;2022-08-19T02:58:22;99306.56;;;18.17;47.09
42727;BME280;28372;56.832;60.658;2022-08-19T03:00:53;99319.13;;;18.32;47.06
42727;BME280;28372;56.832;60.658;2022-08-19T03:03:21;99319.13;;;18.36;46.04
42727;BME280;28372;56.832;60.658;2022-08-19T03:05:49;99326.22;;;18.44;46.08
42727;BME280;28372;56.832;60.658;2022-08-19T03:08:24;99326.22;;;18.47;45.49
42727;BME280;28372;56.832;60.658;2022-08-19T03:10:52;99327.81;;;18.52;45.45
42727;BME280;28372;56.832;60.658;2022-08-19T03:13:20;99338.38;;;18.57;45.21
42727;BME280;28372;56.832;60.658;2022-08-19T03:15:48;99328.22;;;18.61;45.01
42727;BME280;28372;56.832;60.658;2022-08-19T03:18:16;99331.72;;;18.65;45.07
42727;BME280;28372;56.832;60.658;2022-08-19T03:20:47;99338.78;;;18.74;45.23
42727;BME280;28372;56.832;60.658;2022-08-19T03:23:16;99340.38;;;18.75;45.10
42727;BME280;28372;56.832;60.658;2022-08-19T03:25:48;99338.88;;;18.88;44.89
42727;BME280;28372;56.832;60.658;2022-08-19T03:28:37;99336.53;;;19.01;44.38
42727;BME280;28372;56.832;60.658;2022-08-19T03:31:07;99334.59;;;19.23;43.82
42727;BME280;28372;56.832;60.658;2022-08-19T03:33:55;99336.53;;;19.33;43.84
42727;BME280;28372;56.832;60.658;2022-08-19T03:36:25;99337.31;;;19.45;43.34
42727;BME280;28372;56.832;60.658;2022-08-19T03:38:57;99345.91;;;19.58;43.14
42727;BME280;28372;56.832;60.658;2022-08-19T03:41:46;99340.78;;;19.74;43.45
42727;BME280;28372;56.832;60.658;2022-08-19T03:44:17;99345.47;;;19.95;41.63
42727;BME280;28372;56.832;60.658;2022-08-19T03:46:51;99352.50;;;20.03;41.19
42727;BME280;28372;56.832;60.658;2022-08-19T03:49:20;99352.84;;;20.13;40.61
42727;BME280;28372;56.832;60.658;2022-08-19T03:51:56;99354.41;;;20.25;40.25
42727;BME280;28372;56.832;60.658;2022-08-19T03:54:25;99363.75;;;20.42;40.03
42727;BME280;28372;56.832;60.658;2022-08-19T03:56:54;99359.34;;;20.59;39.31
42727;BME280;28372;56.832;60.658;2022-08-19T03:59:26;99371.41;;;20.83;39.14
42727;BME280;28372;56.832;60.658;2022-08-19T04:02:00;99361.09;;;21.01;38.89
42727;BME280;28372;56.832;60.658;2022-08-19T04:04:29;99366.75;;;21.32;38.50
42727;BME280;28372;56.832;60.658;2022-08-19T04:06:57;99359.22;;;21.82;37.74
42727;BME280;28372;56.832;60.658;2022-08-19T04:09:25;99353.00;;;22.12;37.28
42727;BME280;28372;56.832;60.658;2022-08-19T04:11:56;99362.50;;;22.42;36.40
42727;BME280;28372;56.832;60.658;2022-08-19T04:14:28;99359.81;;;22.66;35.36
42727;BME280;28372;56.832;60.658;2022-08-19T04:16:59;99359.41;;;22.95;35.04
42727;BME280;28372;56.832;60.658;2022-08-19T04:19:29;99357.00;;;23.24;34.31
42727;BME280;28372;56.832;60.658;2022-08-19T04:21:57;99355.56;;;23.83;34.04
42727;BME280;28372;56.832;60.658;2022-08-19T04:24:25;99358.81;;;24.02;33.38
42727;BME280;28372;56.832;60.658;2022-08-19T04:26:53;99353.28;;;24.22;32.47
42727;BME280;28372;56.832;60.658;2022-08-19T04:29:23;99346.47;;;24.46;32.56
42727;BME280;28372;56.832;60.658;2022-08-19T04:31:54;99348.63;;;24.55;31.80
42727;BME280;28372;56.832;60.658;2022-08-19T04:34:24;99353.88;;;24.70;31.50
42727;BME280;28372;56.832;60.658;2022-08-19T04:36:53;99350.88;;;24.80;31.49
42727;BME280;28372;56.832;60.658;2022-08-19T04:39:25;99352.28;;;25.05;30.95
42727;BME280;28372;56.832;60.658;2022-08-19T04:42:17;99342.72;;;25.56;30.64
42727;BME280;28372;56.832;60.658;2022-08-19T04:45:05;99341.13;;;26.00;30.11
42727;BME280;28372;56.832;60.658;2022-08-19T04:47:39;99336.81;;;26.29;29.71
42727;BME280;28372;56.832;60.658;2022-08-19T04:50:25;99327.56;;;27.22;29.03
42727;BME280;28372;56.832;60.658;2022-08-19T04:52:54;99328.63;;;27.50;28.43
42727;BME280;28372;56.832;60.658;2022-08-19T04:55:24;99332.75;;;28.25;27.41
42727;BME280;28372;56.832;60.658;2022-08-19T04:57:54;99331.81;;;28.91;26.32
42727;BME280;28372;56.832;60.658;2022-08-19T05:00:22;99335.00;;;29.39;25.78
42727;BME280;28372;56.832;60.658;2022-08-19T05:02:50;99334.72;;;29.74;24.43
42727;BME280;28372;56.832;60.658;2022-08-19T05:05:18;99339.34;;;29.59;24.11
42727;BME280;28372;56.832;60.658;2022-08-19T05:07:46;99332.25;;;29.49;24.19
42727;BME280;28372;56.832;60.658;2022-08-19T05:10:14;99328.03;;;29.44;24.00
42727;BME280;28372;56.832;60.658;2022-08-19T05:12:41;99334.56;;;29.32;24.27
42727;BME280;28372;56.832;60.658;2022-08-19T05:15:09;99330.47;;;29.14;24.40
42727;BME280;28372;56.832;60.658;2022-08-19T05:17:37;99329.38;;;29.02;24.65
42727;BME280;28372;56.832;60.658;2022-08-19T05:20:06;99339.50;;;29.55;24.47
42727;BME280;28372;56.832;60.658;2022-08-19T05:22:53;99324.84;;;30.35;24.16
42727;BME280;28372;56.832;60.658;2022-08-19T05:25:21;99337.28;;;31.10;23.78
42727;BME280;28372;56.832;60.658;2022-08-19T05:27:49;99318.41;;;31.83;23.01
42727;BME280;28372;56.832;60.658;2022-08-19T05:30:17;99318.81;;;32.06;22.40
42727;BME280;28372;56.832;60.658;2022-08-19T05:32:59;99318.09;;;32.71;21.67
42727;BME280;28372;56.832;60.658;2022-08-19T05:35:27;99314.16;;;32.48;21.29
42727;BME280;28372;56.832;60.658;2022-08-19T05:38:00;99316.22;;;33.03;20.96
42727;BME280;28372;56.832;60.658;2022-08-19T05:40:28;99315.19;;;33.62;20.43
42727;BME280;28372;56.832;60.658;2022-08-19T05:42:55;99321.53;;;34.10;20.05
42727;BME280;28372;56.832;60.658;2022-08-19T05:45:23;99319.88;;;33.97;19.97
42727;BME280;28372;56.832;60.658;2022-08-19T05:47:51;99309.03;;;33.85;19.75
42727;BME280;28372;56.832;60.658;2022-08-19T05:50:19;99319.75;;;34.12;19.55
42727;BME280;28372;56.832;60.658;2022-08-19T05:52:47;99302.81;;;34.01;19.69
42727;BME280;28372;56.832;60.658;2022-08-19T05:55:16;99304.06;;;34.58;19.46
42727;BME280;28372;56.832;60.658;2022-08-19T05:57:44;99293.88;;;35.10;19.14
42727;BME280;28372;56.832;60.658;2022-08-19T06:00:12;99304.16;;;35.30;18.52
42727;BME280;28372;56.832;60.658;2022-08-19T06:02:41;99293.03;;;35.75;18.39
42727;BME280;28372;56.832;60.658;2022-08-19T06:05:09;99291.28;;;36.23;17.92
42727;BME280;28372;56.832;60.658;2022-08-19T06:07:37;99295.88;;;36.60;17.79
42727;BME280;28372;56.832;60.658;2022-08-19T06:10:08;99294.09;;;36.63;17.36
42727;BME280;28372;56.832;60.658;2022-08-19T06:12:37;99283.28;;;36.78;17.34
42727;BME280;28372;56.832;60.658;2022-08-19T06:15:08;99297.34;;;36.95;17.25
42727;BME280;28372;56.832;60.658;2022-08-19T06:17:37;99289.38;;;37.05;16.98
42727;BME280;28372;56.832;60.658;2022-08-19T06:20:06;99295.16;;;37.30;17.00
42727;BME280;28372;56.832;60.658;2022-08-19T06:22:43;99285.66;;;37.33;16.91
42727;BME280;28372;56.832;60.658;2022-08-19T06:25:12;99288.53;;;38.05;16.47
42727;BME280;28372;56.832;60.658;2022-08-19T06:27:41;99286.94;;;38.40;16.31
42727;BME280;28372;56.832;60.658;2022-08-19T06:30:29;99289.25;;;38.66;15.70
42727;BME280;28372;56.832;60.658;2022-08-19T06:32:56;99289.88;;;39.03;15.43
42727;BME280;28372;56.832;60.658;2022-08-19T06:35:25;99282.94;;;39.23;15.38
42727;BME280;28372;56.832;60.658;2022-08-19T06:37:53;99276.88;;;39.51;14.75
42727;BME280;28372;56.832;60.658;2022-08-19T06:40:21;99287.59;;;39.78;14.85
42727;BME280;28372;56.832;60.658;2022-08-19T06:42:49;99285.97;;;40.15;14.75
42727;BME280;28372;56.832;60.658;2022-08-19T06:45:22;99290.91;;;40.28;14.65
42727;BME280;28372;56.832;60.658;2022-08-19T06:47:52;99293.22;;;40.42;14.28
42727;BME280;28372;56.832;60.658;2022-08-19T06:50:23;99289.97;;;40.65;14.34
42727;BME280;28372;56.832;60.658;2022-08-19T06:52:51;99277.88;;;40.78;13.95
42727;BME280;28372;56.832;60.658;2022-08-19T06:55:19;99274.72;;;40.95;13.65
42727;BME280;28372;56.832;60.658;2022-08-19T06:57:47;99275.28;;;41.28;13.69
42727;BME280;28372;56.832;60.658;2022-08-19T07:00:15;99269.59;;;41.41;13.49
42727;BME280;28372;56.832;60.658;2022-08-19T07:02:43;99284.84;;;41.52;13.40
42727;BME280;28372;56.832;60.658;2022-08-19T07:05:21;99285.50;;;41.79;13.31
42727;BME280;28372;56.832;60.658;2022-08-19T07:07:49;99281.16;;;41.99;13.25
42727;BME280;28372;56.832;60.658;2022-08-19T07:10:17;99275.31;;;42.05;12.99
42727;BME280;28372;56.832;60.658;2022-08-19T07:12:45;99272.81;;;42.22;12.85
42727;BME280;28372;56.832;60.658;2022-08-19T07:15:13;99267.97;;;42.31;13.06
42727;BME280;28372;56.832;60.658;2022-08-19T07:17:44;99261.66;;;42.24;12.80
42727;BME280;28372;56.832;60.658;2022-08-19T07:20:15;99257.75;;;42.14;12.80
42727;BME280;28372;56.832;60.658;2022-08-19T07:22:44;99257.13;;;42.00;12.90
42727;BME280;28372;56.832;60.658;2022-08-19T07:25:12;99258.31;;;41.70;13.01
42727;BME280;28372;56.832;60.658;2022-08-19T07:27:40;99245.41;;;41.48;13.38
42727;BME280;28372;56.832;60.658;2022-08-19T07:30:12;99252.84;;;41.17;13.33
42727;BME280;28372;56.832;60.658;2022-08-19T07:32:40;99247.78;;;40.62;13.47
42727;BME280;28372;56.832;60.658;2022-08-19T07:35:09;99259.50;;;40.25;14.12
42727;BME280;28372;56.832;60.658;2022-08-19T07:37:37;99261.72;;;39.87;14.31
42727;BME280;28372;56.832;60.658;2022-08-19T07:40:07;99257.06;;;39.51;14.20
42727;BME280;28372;56.832;60.658;2022-08-19T07:42:34;99244.28;;;39.06;14.61
42727;BME280;28372;56.832;60.658;2022-08-19T07:45:03;99239.38;;;38.69;14.95
42727;BME280;28372;56.832;60.658;2022-08-19T07:47:30;99240.44;;;38.41;15.56
42727;BME280;28372;56.832;60.658;2022-08-19T07:50:18;99252.75;;;38.13;15.60
42727;BME280;28372;56.832;60.658;2022-08-19T07:52:48;99256.16;;;37.70;15.41
42727;BME280;28372;56.832;60.658;2022-08-19T07:55:20;99249.41;;;37.43;15.79
42727;BME280;28372;56.832;60.658;2022-08-19T07:58:08;99250.38;;;37.93;15.21
42727;BME280;28372;56.832;60.658;2022-08-19T08:00:36;99237.41;;;36.72;15.73
42727;BME280;28372;56.832;60.658;2022-08-19T08:03:03;99239.81;;;36.45;16.24
42727;BME280;28372;56.832;60.658;2022-08-19T08:05:31;99233.69;;;36.07;16.86
42727;BME280;28372;56.832;60.658;2022-08-19T08:08:17;99229.34;;;35.89;16.93
42727;BME280;28372;56.832;60.658;2022-08-19T08:11:11;99225.50;;;35.70;16.71
42727;BME280;28372;56.832;60.658;2022-08-19T08:13:41;99225.25;;;35.56;16.70
42727;BME280;28372;56.832;60.658;2022-08-19T08:16:09;99212.16;;;35.47;16.79
42727;BME280;28372;56.832;60.658;2022-08-19T08:18:40;99214.94;;;35.30;16.81
42727;BME280;28372;56.832;60.658;2022-08-19T08:21:19;99203.94;;;35.27;17.16
42727;BME280;28372;56.832;60.658;2022-08-19T08:23:46;99201.34;;;35.17;16.94
42727;BME280;28372;56.832;60.658;2022-08-19T08:26:14;99201.34;;;35.17;17.05
42727;BME280;28372;56.832;60.658;2022-08-19T08:28:45;99201.28;;;34.95;17.03
42727;BME280;28372;56.832;60.658;2022-08-19T08:31:15;99190.25;;;34.80;16.85
42727;BME280;28372;56.832;60.658;2022-08-19T08:33:42;99187.38;;;34.69;17.21
42727;BME280;28372;56.832;60.658;2022-08-19T08:36:11;99187.59;;;34.59;17.28
42727;BME280;28372;56.832;60.658;2022-08-19T08:38:42;99180.59;;;34.38;17.62
42727;BME280;28372;56.832;60.658;2022-08-19T08:41:40;99180.78;;;34.83;17.10
42727;BME280;28372;56.832;60.658;2022-08-19T08:44:16;99186.41;;;34.28;17.45
42727;BME280;28372;56.832;60.658;2022-08-19T08:46:55;99185.75;;;34.13;17.64
42727;BME280;28372;56.832;60.658;2022-08-19T08:49:48;99190.03;;;34.40;17.40
42727;BME280;28372;56.832;60.658;2022-08-19T08:52:26;99190.22;;;33.61;18.19
42727;BME280;28372;56.832;60.658;2022-08-19T08:55:00;99183.66;;;34.34;17.41
42727;BME280;28372;56.832;60.658;2022-08-19T09:00:26;99189.66;;;32.84;18.64
42727;BME280;28372;56.832;60.658;2022-08-19T09:02:56;99184.88;;;32.49;18.74
42727;BME280;28372;56.832;60.658;2022-08-19T09:05:36;99188.44;;;32.50;19.05
42727;BME280;28372;56.832;60.658;2022-08-19T09:08:36;99181.16;;;32.58;18.63
42727;BME280;28372;56.832;60.658;2022-08-19T09:11:15;99178.22;;;31.96;19.60
42727;BME280;28372;56.832;60.658;2022-08-19T09:17:20;99167.22;;;31.48;19.73
42727;BME280;28372;56.832;60.658;2022-08-19T09:20:02;99174.34;;;31.34;20.16
42727;BME280;28372;56.832;60.658;2022-08-19T09:22:36;99173.66;;;31.09;20.61
42727;BME280;28372;56.832;60.658;2022-08-19T09:25:06;99172.84;;;30.93;20.84
42727;BME280;28372;56.832;60.658;2022-08-19T09:27:36;99157.38;;;30.83;20.86
42727;BME280;28372;56.832;60.658;2022-08-19T09:30:31;99159.59;;;31.18;20.53
42727;BME280;28372;56.832;60.658;2022-08-19T09:32:59;99145.28;;;30.62;21.19
42727;BME280;28372;56.832;60.658;2022-08-19T09:35:28;99149.03;;;30.59;21.20
42727;BME280;28372;56.832;60.658;2022-08-19T09:37:58;99151.13;;;30.49;21.45
42727;BME280;28372;56.832;60.658;2022-08-19T09:40:27;99139.22;;;30.39;21.87
42727;BME280;28372;56.832;60.658;2022-08-19T09:42:57;99137.75;;;30.29;21.73
42727;BME280;28372;56.832;60.658;2022-08-19T09:45:39;99132.56;;;30.37;21.21
42727;BME280;28372;56.832;60.658;2022-08-19T09:48:06;99121.00;;;30.29;21.75
42727;BME280;28372;56.832;60.658;2022-08-19T09:50:37;99125.38;;;30.21;21.94
42727;BME280;28372;56.832;60.658;2022-08-19T09:53:18;99121.28;;;30.07;22.45
42727;BME280;28372;56.832;60.658;2022-08-19T09:55:46;99109.75;;;30.14;22.12
42727;BME280;28372;56.832;60.658;2022-08-19T09:58:13;99115.66;;;30.16;22.20
42727;BME280;28372;56.832;60.658;2022-08-19T10:00:41;99110.53;;;30.15;22.27
42727;BME280;28372;56.832;60.658;2022-08-19T10:03:08;99117.66;;;30.16;22.07
42727;BME280;28372;56.832;60.658;2022-08-19T10:05:36;99110.72;;;30.11;21.77
42727;BME280;28372;56.832;60.658;2022-08-19T10:08:25;99112.19;;;30.21;21.64
42727;BME280;28372;56.832;60.658;2022-08-19T10:10:54;99105.00;;;30.05;21.90
42727;BME280;28372;56.832;60.658;2022-08-19T10:13:28;99096.94;;;30.07;21.90
42727;BME280;28372;56.832;60.658;2022-08-19T10:16:02;99097.88;;;30.04;21.92
42727;BME280;28372;56.832;60.658;2022-08-19T10:18:31;99087.06;;;29.97;21.35
42727;BME280;28372;56.832;60.658;2022-08-19T10:23:39;99094.09;;;29.83;22.10
42727;BME280;28372;56.832;60.658;2022-08-19T10:26:07;99071.41;;;29.66;21.81
42727;BME280;28372;56.832;60.658;2022-08-19T10:28:35;99088.00;;;29.61;22.15
42727;BME280;28372;56.832;60.658;2022-08-19T10:31:14;99090.91;;;29.66;22.33
42727;BME280;28372;56.832;60.658;2022-08-19T10:33:46;99072.47;;;29.26;22.19
42727;BME280;28372;56.832;60.658;2022-08-19T10:36:22;99078.03;;;29.26;22.35
42727;BME280;28372;56.832;60.658;2022-08-19T10:38:51;99068.78;;;29.01;22.60
42727;BME280;28372;56.832;60.658;2022-08-19T10:41:23;99072.75;;;29.71;21.63
42727;BME280;28372;56.832;60.658;2022-08-19T10:43:53;99068.94;;;28.98;22.77
42727;BME280;28372;56.832;60.658;2022-08-19T10:46:23;99074.53;;;28.79;23.01
42727;BME280;28372;56.832;60.658;2022-08-19T10:48:51;99062.00;;;28.56;22.86
42727;BME280;28372;56.832;60.658;2022-08-19T10:51:20;99060.75;;;28.38;23.26
42727;BME280;28372;56.832;60.658;2022-08-19T10:54:14;99063.19;;;28.27;22.82
42727;BME280;28372;56.832;60.658;2022-08-19T10:56:43;99054.22;;;28.14;23.16
42727;BME280;28372;56.832;60.658;2022-08-19T10:59:22;99059.78;;;28.14;23.58
42727;BME280;28372;56.832;60.658;2022-08-19T11:01:54;99064.34;;;27.98;23.95
42727;BME280;28372;56.832;60.658;2022-08-19T11:04:25;99052.13;;;27.86;23.92
42727;BME280;28372;56.832;60.658;2022-08-19T11:06:55;99054.28;;;27.82;23.95
42727;BME280;28372;56.832;60.658;2022-08-19T11:09:25;99055.94;;;27.71;24.00
42727;BME280;28372;56.832;60.658;2022-08-19T11:12:00;99047.88;;;27.63;23.58
42727;BME280;28372;56.832;60.658;2022-08-19T11:14:30;99054.34;;;27.51;23.82
42727;BME280;28372;56.832;60.658;2022-08-19T11:17:01;99035.00;;;27.47;23.39
42727;BME280;28372;56.832;60.658;2022-08-19T11:19:29;99030.97;;;27.39;23.95
42727;BME280;28372;56.832;60.658;2022-08-19T11:21:57;99021.31;;;27.31;23.81
42727;BME280;28372;56.832;60.658;2022-08-19T11:24:30;99031.34;;;27.28;24.07
42727;BME280;28372;56.832;60.658;2022-08-19T11:27:05;99025.56;;;27.35;24.57
42727;BME280;28372;56.832;60.658;2022-08-19T11:29:35;99011.09;;;27.18;24.39
42727;BME280;28372;56.832;60.658;2022-08-19T11:32:09;99018.88;;;27.33;24.09
42727;BME280;28372;56.832;60.658;2022-08-19T11:34:37;99016.66;;;27.18;23.70
42727;BME280;28372;56.832;60.658;2022-08-19T11:37:05;99005.16;;;27.07;23.57
42727;BME280;28372;56.832;60.658;2022-08-19T11:39:34;99010.53;;;27.01;23.71
42727;BME280;28372;56.832;60.658;2022-08-19T11:42:04;99011.63;;;27.04;23.62
42727;BME280;28372;56.832;60.658;2022-08-19T11:44:52;99005.44;;;27.00;24.01
42727;BME280;28372;56.832;60.658;2022-08-19T11:47:20;98998.34;;;26.99;24.00
42727;BME280;28372;56.832;60.658;2022-08-19T11:49:48;99009.69;;;26.92;24.51
42727;BME280;28372;56.832;60.658;2022-08-19T11:52:15;99009.19;;;26.84;24.73
42727;BME280;28372;56.832;60.658;2022-08-19T11:54:43;99006.88;;;27.14;24.55
42727;BME280;28372;56.832;60.658;2022-08-19T11:57:10;99002.41;;;27.39;23.93
42727;BME280;28372;56.832;60.658;2022-08-19T11:59:38;99000.75;;;27.50;23.98
42727;BME280;28372;56.832;60.658;2022-08-19T12:02:05;99002.25;;;27.42;23.86
42727;BME280;28372;56.832;60.658;2022-08-19T12:04:33;99001.03;;;27.43;24.36
42727;BME280;28372;56.832;60.658;2022-08-19T12:07:00;98989.50;;;27.23;24.37
42727;BME280;28372;56.832;60.658;2022-08-19T12:09:28;98985.09;;;27.03;24.75
42727;BME280;28372;56.832;60.658;2022-08-19T12:11:56;98988.75;;;26.91;24.75
42727;BME280;28372;56.832;60.658;2022-08-19T12:14:24;98988.38;;;26.79;25.13
42727;BME280;28372;56.832;60.658;2022-08-19T12:16:51;98979.50;;;26.72;25.03
42727;BME280;28372;56.832;60.658;2022-08-19T12:19:20;98992.41;;;26.65;25.13
42727;BME280;28372;56.832;60.658;2022-08-19T12:21:49;99003.31;;;26.60;24.86
42727;BME280;28372;56.832;60.658;2022-08-19T12:24:17;98995.56;;;26.55;25.51
42727;BME280;28372;56.832;60.658;2022-08-19T12:26:50;98983.06;;;26.50;24.94
42727;BME280;28372;56.832;60.658;2022-08-19T12:29:20;98989.47;;;26.47;24.57
42727;BME280;28372;56.832;60.658;2022-08-19T12:31:50;98986.97;;;26.40;25.41
42727;BME280;28372;56.832;60.658;2022-08-19T12:34:18;98979.34;;;26.31;24.70
42727;BME280;28372;56.832;60.658;2022-08-19T12:36:47;98975.28;;;26.23;25.13
42727;BME280;28372;56.832;60.658;2022-08-19T12:39:16;98970.19;;;26.21;25.09
42727;BME280;28372;56.832;60.658;2022-08-19T12:41:44;98963.88;;;26.21;25.04
42727;BME280;28372;56.832;60.658;2022-08-19T12:44:22;98970.63;;;26.20;25.75
42727;BME280;28372;56.832;60.658;2022-08-19T12:46:56;98970.47;;;26.36;24.74
42727;BME280;28372;56.832;60.658;2022-08-19T12:49:24;98961.34;;;26.58;24.75
42727;BME280;28372;56.832;60.658;2022-08-19T12:52:12;98959.56;;;26.64;24.61
42727;BME280;28372;56.832;60.658;2022-08-19T12:54:51;98961.81;;;26.78;24.45
42727;BME280;28372;56.832;60.658;2022-08-19T12:57:23;98971.28;;;26.90;24.30
42727;BME280;28372;56.832;60.658;2022-08-19T13:00:17;98973.25;;;27.12;24.49
42727;BME280;28372;56.832;60.658;2022-08-19T13:02:47;98969.06;;;27.39;24.16
42727;BME280;28372;56.832;60.658;2022-08-19T13:05:28;98967.09;;;27.48;23.78
42727;BME280;28372;56.832;60.658;2022-08-19T13:07:58;98962.44;;;27.36;24.00
42727;BME280;28372;56.832;60.658;2022-08-19T13:10:30;98968.25;;;27.29;24.10
42727;BME280;28372;56.832;60.658;2022-08-19T13:13:04;98976.75;;;27.34;24.30
42727;BME280;28372;56.832;60.658;2022-08-19T13:15:38;98968.66;;;27.18;24.64
42727;BME280;28372;56.832;60.658;2022-08-19T13:18:12;98965.06;;;27.08;24.62
42727;BME280;28372;56.832;60.658;2022-08-19T13:20:41;98966.16;;;27.11;24.90
42727;BME280;28372;56.832;60.658;2022-08-19T13:23:18;98963.69;;;27.13;24.95